sensor_id;sensor_type;location;lat;lon;timestamp;temperature;humidity
10010;DHT22;5044;48.652;9.250;2022-07-05T00:00:24;18.10;99.90
10010;DHT22;5044;48.652;9.250;2022-07-05T00:02:51;18.10;99.90
10010;DHT22;5044;48.652;9.250;2022-07-05T00:05:18;18.00;99.90
10010;DHT22;5044;48.652;9.250;2022-07-05T00:07:45;18.00;99.90
10010;DHT22;5044;48.652;9.250;2022-07-05T00:10:12;18.00;99.90
10010;DHT22;5044;48.652;9.250;2022-07-05T00:12:39;18.00;99.90
10010;DHT22;5044;48.652;9.250;2022-07-05T00:15:06;17.90;99.00
10010;DHT22;5044;48.652;9.250;2022-07-05T00:17:35;17.90;98.60
10010;DHT22;5044;48.652;9.250;2022-07-05T00:20:03;17.90;99.10
10010;DHT22;5044;48.652;9.250;2022-07-05T00:22:33;17.80;97.90
10010;DHT22;5044;48.652;9.250;2022-07-05T00:25:00;18.00;97.90
10010;DHT22;5044;48.652;9.250;2022-07-05T00:27:27;17.80;99.90
10010;DHT22;5044;48.652;9.250;2022-07-05T00:29:53;17.80;99.90
10010;DHT22;5044;48.652;9.250;2022-07-05T00:32:20;17.80;99.90
10010;DHT22;5044;48.652;9.250;2022-07-05T00:34:49;17.70;98.50
10010;DHT22;5044;48.652;9.250;2022-07-05T00:37:15;17.70;99.90
10010;DHT22;5044;48.652;9.250;2022-07-05T00:39:44;17.60;99.90
10010;DHT22;5044;48.652;9.250;2022-07-05T00:42:11;17.60;99.20
10010;DHT22;5044;48.652;9.250;2022-07-05T00:44:39;17.50;99.90
10010;DHT22;5044;48.652;9.250;2022-07-05T00:47:08;17.50;99.90
10010;DHT22;5044;48.652;9.250;2022-07-05T00:49:36;17.50;99.90
10010;DHT22;5044;48.652;9.250;2022-07-05T00:52:05;17.40;99.90
10010;DHT22;5044;48.652;9.250;2022-07-05T00:54:33;17.40;99.90
10010;DHT22;5044;48.652;9.250;2022-07-05T00:57:01;17.40;99.90
10010;DHT22;5044;48.652;9.250;2022-07-05T00:59:29;17.40;99.90
10010;DHT22;5044;48.652;9.250;2022-07-05T01:01:57;17.30;99.90
10010;DHT22;5044;48.652;9.250;2022-07-05T01:04:24;17.20;99.90
10010;DHT22;5044;48.652;9.250;2022-07-05T01:06:52;17.20;99.90
10010;DHT22;5044;48.652;9.250;2022-07-05T01:09:22;17.10;99.90
10010;DHT22;5044;48.652;9.250;2022-07-05T01:11:50;17.00;99.90
10010;DHT22;5044;48.652;9.250;2022-07-05T01:14:18;17.00;99.90
10010;DHT22;5044;48.652;9.250;2022-07-05T01:16:45;17.00;99.90
10010;DHT22;5044;48.652;9.250;2022-07-05T01:19:13;16.90;99.90
10010;DHT22;5044;48.652;9.250;2022-07-05T01:21:42;16.90;99.90
10010;DHT22;5044;48.652;9.250;2022-07-05T01:24:11;17.00;99.90
10010;DHT22;5044;48.652;9.250;2022-07-05T01:26:39;16.90;99.90
10010;DHT22;5044;48.652;9.250;2022-07-05T01:29:08;16.90;99.90
10010;DHT22;5044;48.652;9.250;2022-07-05T01:31:36;16.90;99.90
10010;DHT22;5044;48.652;9.250;2022-07-05T01:34:04;16.70;99.90
10010;DHT22;5044;48.652;9.250;2022-07-05T01:36:31;16.70;99.90
10010;DHT22;5044;48.652;9.250;2022-07-05T01:38:59;16.60;99.90
10010;DHT22;5044;48.652;9.250;2022-07-05T01:41:29;16.60;99.90
10010;DHT22;5044;48.652;9.250;2022-07-05T01:43:56;16.60;99.90
10010;DHT22;5044;48.652;9.250;2022-07-05T01:46:24;16.50;99.90
10010;DHT22;5044;48.652;9.250;2022-07-05T01:48:56;16.50;99.90
10010;DHT22;5044;48.652;9.250;2022-07-05T01:51:25;16.50;99.90
10010;DHT22;5044;48.652;9.250;2022-07-05T01:53:53;16.40;99.90
10010;DHT22;5044;48.652;9.250;2022-07-05T01:56:20;16.40;99.90
10010;DHT22;5044;48.652;9.250;2022-07-05T01:58:49;16.40;99.90
10010;DHT22;5044;48.652;9.250;2022-07-05T02:01:31;16.30;99.90
10010;DHT22;5044;48.652;9.250;2022-07-05T02:03:59;16.30;99.90
10010;DHT22;5044;48.652;9.250;2022-07-05T02:06:26;16.30;99.90
10010;DHT22;5044;48.652;9.250;2022-07-05T02:08:53;16.20;99.90
10010;DHT22;5044;48.652;9.250;2022-07-05T02:11:20;16.20;99.90
10010;DHT22;5044;48.652;9.250;2022-07-05T02:13:48;16.20;99.90
10010;DHT22;5044;48.652;9.250;2022-07-05T02:16:15;16.10;99.90
10010;DHT22;5044;48.652;9.250;2022-07-05T02:18:42;16.10;99.90
10010;DHT22;5044;48.652;9.250;2022-07-05T02:21:09;16.10;99.90
10010;DHT22;5044;48.652;9.250;2022-07-05T02:23:36;16.00;99.90
10010;DHT22;5044;48.652;9.250;2022-07-05T02:26:03;16.00;99.90
10010;DHT22;5044;48.652;9.250;2022-07-05T02:28:30;15.90;99.90
10010;DHT22;5044;48.652;9.250;2022-07-05T02:30:58;15.90;99.90
10010;DHT22;5044;48.652;9.250;2022-07-05T02:33:25;15.90;99.90
10010;DHT22;5044;48.652;9.250;2022-07-05T02:35:51;15.80;99.90
10010;DHT22;5044;48.652;9.250;2022-07-05T02:38:18;15.80;99.90
10010;DHT22;5044;48.652;9.250;2022-07-05T02:40:45;15.80;99.90
10010;DHT22;5044;48.652;9.250;2022-07-05T02:43:12;15.70;99.90
10010;DHT22;5044;48.652;9.250;2022-07-05T02:45:39;15.70;99.90
10010;DHT22;5044;48.652;9.250;2022-07-05T02:48:07;15.60;99.90
10010;DHT22;5044;48.652;9.250;2022-07-05T02:50:34;15.60;99.90
10010;DHT22;5044;48.652;9.250;2022-07-05T02:53:01;15.60;99.90
10010;DHT22;5044;48.652;9.250;2022-07-05T02:55:28;15.50;99.90
10010;DHT22;5044;48.652;9.250;2022-07-05T02:57:55;15.50;99.90
10010;DHT22;5044;48.652;9.250;2022-07-05T03:00:23;15.50;99.90
10010;DHT22;5044;48.652;9.250;2022-07-05T03:02:49;15.50;99.90
10010;DHT22;5044;48.652;9.250;2022-07-05T03:05:18;15.50;99.90
10010;DHT22;5044;48.652;9.250;2022-07-05T03:07:45;15.40;99.90
10010;DHT22;5044;48.652;9.250;2022-07-05T03:10:12;15.40;99.90
10010;DHT22;5044;48.652;9.250;2022-07-05T03:12:39;15.30;99.90
10010;DHT22;5044;48.652;9.250;2022-07-05T03:15:07;15.30;99.90
10010;DHT22;5044;48.652;9.250;2022-07-05T03:17:34;15.30;99.90
10010;DHT22;5044;48.652;9.250;2022-07-05T03:20:01;15.20;99.90
10010;DHT22;5044;48.652;9.250;2022-07-05T03:22:30;15.20;99.90
10010;DHT22;5044;48.652;9.250;2022-07-05T03:24:56;15.20;99.90
10010;DHT22;5044;48.652;9.250;2022-07-05T03:27:23;15.20;99.90
10010;DHT22;5044;48.652;9.250;2022-07-05T03:29:50;15.10;99.90
10010;DHT22;5044;48.652;9.250;2022-07-05T03:32:17;15.10;99.90
10010;DHT22;5044;48.652;9.250;2022-07-05T03:34:44;15.00;99.90
10010;DHT22;5044;48.652;9.250;2022-07-05T03:37:11;15.00;99.90
10010;DHT22;5044;48.652;9.250;2022-07-05T03:39:39;15.00;99.90
10010;DHT22;5044;48.652;9.250;2022-07-05T03:42:06;15.00;99.90
10010;DHT22;5044;48.652;9.250;2022-07-05T03:44:33;15.00;99.90
10010;DHT22;5044;48.652;9.250;2022-07-05T03:47:00;15.00;99.90
10010;DHT22;5044;48.652;9.250;2022-07-05T03:49:27;14.90;99.90
10010;DHT22;5044;48.652;9.250;2022-07-05T03:51:54;14.90;99.90
10010;DHT22;5044;48.652;9.250;2022-07-05T03:54:21;14.90;99.90
10010;DHT22;5044;48.652;9.250;2022-07-05T03:56:49;14.90;99.90
10010;DHT22;5044;48.652;9.250;2022-07-05T03:59:16;14.80;99.90
10010;DHT22;5044;48.652;9.250;2022-07-05T04:01:43;14.80;99.90
10010;DHT22;5044;48.652;9.250;2022-07-05T04:04:10;14.80;99.90
10010;DHT22;5044;48.652;9.250;2022-07-05T04:06:37;14.80;99.90
10010;DHT22;5044;48.652;9.250;2022-07-05T04:09:04;14.80;99.90
10010;DHT22;5044;48.652;9.250;2022-07-05T04:11:31;14.80;99.90
10010;DHT22;5044;48.652;9.250;2022-07-05T04:13:59;14.80;99.90
10010;DHT22;5044;48.652;9.250;2022-07-05T04:16:27;14.70;99.90
10010;DHT22;5044;48.652;9.250;2022-07-05T04:18:54;14.80;99.90
10010;DHT22;5044;48.652;9.250;2022-07-05T04:21:21;14.80;99.90
10010;DHT22;5044;48.652;9.250;2022-07-05T04:23:48;14.80;99.90
10010;DHT22;5044;48.652;9.250;2022-07-05T04:26:15;14.80;99.90
10010;DHT22;5044;48.652;9.250;2022-07-05T04:28:43;14.80;99.90
10010;DHT22;5044;48.652;9.250;2022-07-05T04:31:26;14.80;99.90
10010;DHT22;5044;48.652;9.250;2022-07-05T04:33:58;14.80;99.90
10010;DHT22;5044;48.652;9.250;2022-07-05T04:36:35;14.80;99.90
10010;DHT22;5044;48.652;9.250;2022-07-05T04:39:13;14.80;99.90
10010;DHT22;5044;48.652;9.250;2022-07-05T04:41:58;14.90;99.90
10010;DHT22;5044;48.652;9.250;2022-07-05T04:44:32;14.80;99.90
10010;DHT22;5044;48.652;9.250;2022-07-05T04:47:17;15.00;99.90
10010;DHT22;5044;48.652;9.250;2022-07-05T04:49:46;14.90;99.90
10010;DHT22;5044;48.652;9.250;2022-07-05T04:52:25;15.10;99.90
10010;DHT22;5044;48.652;9.250;2022-07-05T04:54:59;15.10;99.90
10010;DHT22;5044;48.652;9.250;2022-07-05T04:57:42;15.10;99.90
10010;DHT22;5044;48.652;9.250;2022-07-05T05:00:15;15.20;99.90
10010;DHT22;5044;48.652;9.250;2022-07-05T05:02:46;15.20;99.90
10010;DHT22;5044;48.652;9.250;2022-07-05T05:05:40;15.30;99.90
10010;DHT22;5044;48.652;9.250;2022-07-05T05:08:11;15.40;99.90
10010;DHT22;5044;48.652;9.250;2022-07-05T05:11:03;15.60;99.90
10010;DHT22;5044;48.652;9.250;2022-07-05T05:13:44;15.60;99.90
10010;DHT22;5044;48.652;9.250;2022-07-05T05:16:43;15.50;99.90
10010;DHT22;5044;48.652;9.250;2022-07-05T05:23:04;15.70;99.90
10010;DHT22;5044;48.652;9.250;2022-07-05T05:26:10;15.50;99.90
10010;DHT22;5044;48.652;9.250;2022-07-05T05:32:55;16.00;99.90
10010;DHT22;5044;48.652;9.250;2022-07-05T05:36:24;16.20;99.90
10010;DHT22;5044;48.652;9.250;2022-07-05T05:41:41;16.70;99.90
10010;DHT22;5044;48.652;9.250;2022-07-05T05:44:08;16.90;99.90
10010;DHT22;5044;48.652;9.250;2022-07-05T05:46:35;17.10;99.90
10010;DHT22;5044;48.652;9.250;2022-07-05T05:49:03;17.10;99.90
10010;DHT22;5044;48.652;9.250;2022-07-05T05:51:30;17.40;99.90
10010;DHT22;5044;48.652;9.250;2022-07-05T05:53:59;17.50;99.90
10010;DHT22;5044;48.652;9.250;2022-07-05T05:56:26;17.60;99.90
10010;DHT22;5044;48.652;9.250;2022-07-05T05:59:02;17.90;99.90
10010;DHT22;5044;48.652;9.250;2022-07-05T06:01:32;18.10;99.90
10010;DHT22;5044;48.652;9.250;2022-07-05T06:04:01;18.30;99.90
10010;DHT22;5044;48.652;9.250;2022-07-05T06:06:34;18.40;99.90
10010;DHT22;5044;48.652;9.250;2022-07-05T06:09:03;18.70;99.90
10010;DHT22;5044;48.652;9.250;2022-07-05T06:11:40;18.80;99.90
10010;DHT22;5044;48.652;9.250;2022-07-05T06:14:10;18.90;99.90
10010;DHT22;5044;48.652;9.250;2022-07-05T06:16:42;19.10;99.90
10010;DHT22;5044;48.652;9.250;2022-07-05T06:19:18;19.30;99.90
10010;DHT22;5044;48.652;9.250;2022-07-05T06:21:45;19.50;99.90
10010;DHT22;5044;48.652;9.250;2022-07-05T06:24:14;19.60;99.90
10010;DHT22;5044;48.652;9.250;2022-07-05T06:26:44;19.90;99.90
10010;DHT22;5044;48.652;9.250;2022-07-05T06:29:14;19.90;99.90
10010;DHT22;5044;48.652;9.250;2022-07-05T06:31:41;20.10;99.90
10010;DHT22;5044;48.652;9.250;2022-07-05T06:34:11;20.30;99.90
10010;DHT22;5044;48.652;9.250;2022-07-05T06:36:43;20.40;99.50
10010;DHT22;5044;48.652;9.250;2022-07-05T06:39:18;20.40;99.90
10010;DHT22;5044;48.652;9.250;2022-07-05T06:41:52;20.50;99.90
10010;DHT22;5044;48.652;9.250;2022-07-05T06:44:38;20.70;99.70
10010;DHT22;5044;48.652;9.250;2022-07-05T06:47:05;21.00;99.50
10010;DHT22;5044;48.652;9.250;2022-07-05T06:49:33;21.20;98.00
10010;DHT22;5044;48.652;9.250;2022-07-05T06:52:03;21.40;96.80
10010;DHT22;5044;48.652;9.250;2022-07-05T06:54:33;21.50;97.10
10010;DHT22;5044;48.652;9.250;2022-07-05T06:57:09;21.60;95.60
10010;DHT22;5044;48.652;9.250;2022-07-05T06:59:43;21.90;96.10
10010;DHT22;5044;48.652;9.250;2022-07-05T07:02:15;22.10;95.30
10010;DHT22;5044;48.652;9.250;2022-07-05T07:04:45;22.10;95.60
10010;DHT22;5044;48.652;9.250;2022-07-05T07:07:11;22.30;93.50
10010;DHT22;5044;48.652;9.250;2022-07-05T07:09:58;22.20;92.40
10010;DHT22;5044;48.652;9.250;2022-07-05T07:12:38;22.50;94.40
10010;DHT22;5044;48.652;9.250;2022-07-05T07:15:10;22.50;93.80
10010;DHT22;5044;48.652;9.250;2022-07-05T07:17:37;22.40;93.70
10010;DHT22;5044;48.652;9.250;2022-07-05T07:20:12;22.70;93.80
10010;DHT22;5044;48.652;9.250;2022-07-05T07:22:43;23.00;92.60
10010;DHT22;5044;48.652;9.250;2022-07-05T07:25:13;23.20;91.80
10010;DHT22;5044;48.652;9.250;2022-07-05T07:27:47;23.40;93.10
10010;DHT22;5044;48.652;9.250;2022-07-05T07:30:27;23.50;90.80
10010;DHT22;5044;48.652;9.250;2022-07-05T07:33:01;23.60;86.90
10010;DHT22;5044;48.652;9.250;2022-07-05T07:35:28;23.80;93.40
10010;DHT22;5044;48.652;9.250;2022-07-05T07:38:03;24.00;86.90
10010;DHT22;5044;48.652;9.250;2022-07-05T07:40:36;23.80;83.40
10010;DHT22;5044;48.652;9.250;2022-07-05T07:43:04;24.10;88.90
10010;DHT22;5044;48.652;9.250;2022-07-05T07:45:42;24.40;81.80
10010;DHT22;5044;48.652;9.250;2022-07-05T07:48:12;24.00;83.80
10010;DHT22;5044;48.652;9.250;2022-07-05T07:50:44;24.20;82.70
10010;DHT22;5044;48.652;9.250;2022-07-05T07:53:15;24.80;89.50
10010;DHT22;5044;48.652;9.250;2022-07-05T07:55:48;24.80;79.80
10010;DHT22;5044;48.652;9.250;2022-07-05T07:58:21;24.90;80.70
10010;DHT22;5044;48.652;9.250;2022-07-05T08:00:55;25.30;77.70
10010;DHT22;5044;48.652;9.250;2022-07-05T08:03:29;25.50;69.10
10010;DHT22;5044;48.652;9.250;2022-07-05T08:06:02;25.70;82.00
10010;DHT22;5044;48.652;9.250;2022-07-05T08:08:33;25.90;75.00
10010;DHT22;5044;48.652;9.250;2022-07-05T08:11:15;25.90;66.70
10010;DHT22;5044;48.652;9.250;2022-07-05T08:13:42;25.60;61.10
10010;DHT22;5044;48.652;9.250;2022-07-05T08:16:15;26.00;83.60
10010;DHT22;5044;48.652;9.250;2022-07-05T08:18:43;26.10;73.00
10010;DHT22;5044;48.652;9.250;2022-07-05T08:21:28;26.10;60.70
10010;DHT22;5044;48.652;9.250;2022-07-05T08:24:03;26.40;67.60
10010;DHT22;5044;48.652;9.250;2022-07-05T08:26:39;26.80;66.70
10010;DHT22;5044;48.652;9.250;2022-07-05T08:29:14;27.20;73.80
10010;DHT22;5044;48.652;9.250;2022-07-05T08:31:47;27.60;72.50
10010;DHT22;5044;48.652;9.250;2022-07-05T08:34:18;27.40;63.40
10010;DHT22;5044;48.652;9.250;2022-07-05T08:36:50;27.90;71.50
10010;DHT22;5044;48.652;9.250;2022-07-05T08:39:17;27.70;60.50
10010;DHT22;5044;48.652;9.250;2022-07-05T08:41:49;27.70;66.60
10010;DHT22;5044;48.652;9.250;2022-07-05T08:44:20;28.30;61.50
10010;DHT22;5044;48.652;9.250;2022-07-05T08:46:52;27.50;52.40
10010;DHT22;5044;48.652;9.250;2022-07-05T08:49:27;28.20;69.30
10010;DHT22;5044;48.652;9.250;2022-07-05T08:52:00;28.20;55.60
10010;DHT22;5044;48.652;9.250;2022-07-05T08:54:30;28.60;67.90
10010;DHT22;5044;48.652;9.250;2022-07-05T08:56:58;28.90;61.70
10010;DHT22;5044;48.652;9.250;2022-07-05T08:59:28;29.10;56.70
10010;DHT22;5044;48.652;9.250;2022-07-05T09:01:59;29.60;57.60
10010;DHT22;5044;48.652;9.250;2022-07-05T09:04:35;29.30;56.10
10010;DHT22;5044;48.652;9.250;2022-07-05T09:07:14;29.40;53.10
10010;DHT22;5044;48.652;9.250;2022-07-05T09:09:48;29.10;52.30
10010;DHT22;5044;48.652;9.250;2022-07-05T09:12:16;28.70;52.80
10010;DHT22;5044;48.652;9.250;2022-07-05T09:14:49;28.90;55.80
10010;DHT22;5044;48.652;9.250;2022-07-05T09:17:26;29.60;54.00
10010;DHT22;5044;48.652;9.250;2022-07-05T09:20:08;29.10;54.10
10010;DHT22;5044;48.652;9.250;2022-07-05T09:22:46;30.00;58.40
10010;DHT22;5044;48.652;9.250;2022-07-05T09:25:20;30.50;53.60
10010;DHT22;5044;48.652;9.250;2022-07-05T09:27:53;30.80;57.60
10010;DHT22;5044;48.652;9.250;2022-07-05T09:30:28;31.00;53.10
10010;DHT22;5044;48.652;9.250;2022-07-05T09:33:13;31.20;49.20
10010;DHT22;5044;48.652;9.250;2022-07-05T09:35:41;30.90;50.50
10010;DHT22;5044;48.652;9.250;2022-07-05T09:38:17;31.10;47.40
10010;DHT22;5044;48.652;9.250;2022-07-05T09:40:48;31.00;46.10
10010;DHT22;5044;48.652;9.250;2022-07-05T09:43:18;30.50;47.10
10010;DHT22;5044;48.652;9.250;2022-07-05T09:45:56;31.40;52.40
10010;DHT22;5044;48.652;9.250;2022-07-05T09:48:25;31.80;46.20
10010;DHT22;5044;48.652;9.250;2022-07-05T09:50:52;31.30;45.20
10010;DHT22;5044;48.652;9.250;2022-07-05T09:53:19;31.70;47.80
10010;DHT22;5044;48.652;9.250;2022-07-05T09:56:00;32.30;48.70
10010;DHT22;5044;48.652;9.250;2022-07-05T09:58:28;32.60;45.00
10010;DHT22;5044;48.652;9.250;2022-07-05T10:00:57;32.80;45.50
10010;DHT22;5044;48.652;9.250;2022-07-05T10:03:26;31.80;41.30
10010;DHT22;5044;48.652;9.250;2022-07-05T10:06:09;32.30;47.30
10010;DHT22;5044;48.652;9.250;2022-07-05T10:08:39;32.60;46.30
10010;DHT22;5044;48.652;9.250;2022-07-05T10:11:09;32.30;42.60
10010;DHT22;5044;48.652;9.250;2022-07-05T10:13:44;31.70;42.30
10010;DHT22;5044;48.652;9.250;2022-07-05T10:16:11;31.50;43.40
10010;DHT22;5044;48.652;9.250;2022-07-05T10:18:43;31.80;48.30
10010;DHT22;5044;48.652;9.250;2022-07-05T10:21:14;31.80;45.00
10010;DHT22;5044;48.652;9.250;2022-07-05T10:23:43;31.30;44.20
10010;DHT22;5044;48.652;9.250;2022-07-05T10:26:11;31.60;46.30
10010;DHT22;5044;48.652;9.250;2022-07-05T10:28:40;32.00;44.80
10010;DHT22;5044;48.652;9.250;2022-07-05T10:31:07;31.70;43.10
10010;DHT22;5044;48.652;9.250;2022-07-05T10:33:35;31.60;42.30
10010;DHT22;5044;48.652;9.250;2022-07-05T10:36:10;31.90;41.90
10010;DHT22;5044;48.652;9.250;2022-07-05T10:38:44;31.40;40.80
10010;DHT22;5044;48.652;9.250;2022-07-05T10:41:19;31.50;41.90
10010;DHT22;5044;48.652;9.250;2022-07-05T10:43:53;32.50;44.70
10010;DHT22;5044;48.652;9.250;2022-07-05T10:46:33;33.70;45.60
10010;DHT22;5044;48.652;9.250;2022-07-05T10:49:10;33.00;39.80
10010;DHT22;5044;48.652;9.250;2022-07-05T10:51:43;32.50;39.40
10010;DHT22;5044;48.652;9.250;2022-07-05T10:54:10;32.50;38.90
10010;DHT22;5044;48.652;9.250;2022-07-05T10:56:37;32.50;40.90
10010;DHT22;5044;48.652;9.250;2022-07-05T10:59:07;32.90;41.80
10010;DHT22;5044;48.652;9.250;2022-07-05T11:01:37;33.30;39.40
10010;DHT22;5044;48.652;9.250;2022-07-05T11:04:27;33.30;39.70
10010;DHT22;5044;48.652;9.250;2022-07-05T11:06:59;33.30;39.50
10010;DHT22;5044;48.652;9.250;2022-07-05T11:09:26;32.70;38.00
10010;DHT22;5044;48.652;9.250;2022-07-05T11:12:05;32.70;39.80
10010;DHT22;5044;48.652;9.250;2022-07-05T11:14:37;32.50;38.30
10010;DHT22;5044;48.652;9.250;2022-07-05T11:17:24;32.40;38.50
10010;DHT22;5044;48.652;9.250;2022-07-05T11:20:13;32.50;39.30
10010;DHT22;5044;48.652;9.250;2022-07-05T11:23:06;33.30;41.00
10010;DHT22;5044;48.652;9.250;2022-07-05T11:25:35;34.60;41.30
10010;DHT22;5044;48.652;9.250;2022-07-05T11:28:05;34.90;39.50
10010;DHT22;5044;48.652;9.250;2022-07-05T11:30:54;33.80;36.30
10010;DHT22;5044;48.652;9.250;2022-07-05T11:33:39;33.20;35.70
10010;DHT22;5044;48.652;9.250;2022-07-05T11:36:20;33.50;38.40
10010;DHT22;5044;48.652;9.250;2022-07-05T11:39:18;34.10;39.80
10010;DHT22;5044;48.652;9.250;2022-07-05T11:41:47;34.80;38.90
10010;DHT22;5044;48.652;9.250;2022-07-05T11:44:15;35.00;37.40
10010;DHT22;5044;48.652;9.250;2022-07-05T11:46:42;33.70;34.40
10010;DHT22;5044;48.652;9.250;2022-07-05T11:49:09;33.50;35.00
10010;DHT22;5044;48.652;9.250;2022-07-05T11:51:36;34.50;37.90
10010;DHT22;5044;48.652;9.250;2022-07-05T11:54:09;33.70;35.10
10010;DHT22;5044;48.652;9.250;2022-07-05T11:56:41;33.20;36.00
10010;DHT22;5044;48.652;9.250;2022-07-05T12:02:53;31.70;35.90
10010;DHT22;5044;48.652;9.250;2022-07-05T12:05:47;32.40;37.70
10010;DHT22;5044;48.652;9.250;2022-07-05T12:08:59;33.00;36.60
10010;DHT22;5044;48.652;9.250;2022-07-05T12:11:32;33.00;37.40
10010;DHT22;5044;48.652;9.250;2022-07-05T12:14:23;33.30;35.90
10010;DHT22;5044;48.652;9.250;2022-07-05T12:17:14;33.80;36.20
10010;DHT22;5044;48.652;9.250;2022-07-05T12:19:44;33.70;35.50
10010;DHT22;5044;48.652;9.250;2022-07-05T12:22:16;33.90;36.00
10010;DHT22;5044;48.652;9.250;2022-07-05T12:24:46;33.70;34.90
10010;DHT22;5044;48.652;9.250;2022-07-05T12:27:14;34.20;36.50
10010;DHT22;5044;48.652;9.250;2022-07-05T12:29:53;34.50;37.90
10010;DHT22;5044;48.652;9.250;2022-07-05T12:32:25;33.80;35.60
10010;DHT22;5044;48.652;9.250;2022-07-05T12:34:52;34.20;39.00
10010;DHT22;5044;48.652;9.250;2022-07-05T12:37:29;35.10;38.00
10010;DHT22;5044;48.652;9.250;2022-07-05T12:40:04;35.10;36.10
10010;DHT22;5044;48.652;9.250;2022-07-05T12:42:32;34.60;34.60
10010;DHT22;5044;48.652;9.250;2022-07-05T12:45:09;35.00;37.10
10010;DHT22;5044;48.652;9.250;2022-07-05T12:47:51;35.30;36.90
10010;DHT22;5044;48.652;9.250;2022-07-05T12:50:19;34.50;35.30
10010;DHT22;5044;48.652;9.250;2022-07-05T12:53:03;34.50;35.70
10010;DHT22;5044;48.652;9.250;2022-07-05T12:55:58;34.30;33.70
10010;DHT22;5044;48.652;9.250;2022-07-05T12:58:50;34.60;35.50
10010;DHT22;5044;48.652;9.250;2022-07-05T13:01:20;34.60;35.20
10010;DHT22;5044;48.652;9.250;2022-07-05T13:04:02;34.10;36.00
10010;DHT22;5044;48.652;9.250;2022-07-05T13:06:48;33.20;34.80
10010;DHT22;5044;48.652;9.250;2022-07-05T13:09:29;33.40;35.10
10010;DHT22;5044;48.652;9.250;2022-07-05T13:12:05;34.00;36.60
10010;DHT22;5044;48.652;9.250;2022-07-05T13:14:33;34.30;36.50
10010;DHT22;5044;48.652;9.250;2022-07-05T13:17:02;34.20;36.30
10010;DHT22;5044;48.652;9.250;2022-07-05T13:19:29;34.40;35.30
10010;DHT22;5044;48.652;9.250;2022-07-05T13:21:58;34.70;34.70
10010;DHT22;5044;48.652;9.250;2022-07-05T13:24:30;34.80;34.60
10010;DHT22;5044;48.652;9.250;2022-07-05T13:26:57;35.50;35.90
10010;DHT22;5044;48.652;9.250;2022-07-05T13:29:29;34.70;33.80
10010;DHT22;5044;48.652;9.250;2022-07-05T13:31:56;33.30;34.40
10010;DHT22;5044;48.652;9.250;2022-07-05T13:34:30;34.60;37.30
10010;DHT22;5044;48.652;9.250;2022-07-05T13:36:57;35.20;35.90
10010;DHT22;5044;48.652;9.250;2022-07-05T13:39:24;35.50;35.40
10010;DHT22;5044;48.652;9.250;2022-07-05T13:41:53;35.70;35.30
10010;DHT22;5044;48.652;9.250;2022-07-05T13:44:22;35.80;36.60
10010;DHT22;5044;48.652;9.250;2022-07-05T13:46:49;36.30;36.80
10010;DHT22;5044;48.652;9.250;2022-07-05T13:49:16;35.40;34.30
10010;DHT22;5044;48.652;9.250;2022-07-05T13:51:44;36.30;36.70
10010;DHT22;5044;48.652;9.250;2022-07-05T13:54:11;36.10;35.50
10010;DHT22;5044;48.652;9.250;2022-07-05T13:56:38;35.60;35.50
10010;DHT22;5044;48.652;9.250;2022-07-05T13:59:05;34.90;34.80
10010;DHT22;5044;48.652;9.250;2022-07-05T14:01:34;33.60;33.30
10010;DHT22;5044;48.652;9.250;2022-07-05T14:04:04;33.40;34.40
10010;DHT22;5044;48.652;9.250;2022-07-05T14:06:32;33.30;34.80
10010;DHT22;5044;48.652;9.250;2022-07-05T14:09:01;33.20;34.70
10010;DHT22;5044;48.652;9.250;2022-07-05T14:11:28;33.40;35.10
10010;DHT22;5044;48.652;9.250;2022-07-05T14:13:55;33.70;36.00
10010;DHT22;5044;48.652;9.250;2022-07-05T14:16:23;33.70;36.00
10010;DHT22;5044;48.652;9.250;2022-07-05T14:18:50;34.30;36.30
10010;DHT22;5044;48.652;9.250;2022-07-05T14:21:18;34.30;35.20
10010;DHT22;5044;48.652;9.250;2022-07-05T14:23:45;34.70;35.10
10010;DHT22;5044;48.652;9.250;2022-07-05T14:26:14;34.80;35.50
10010;DHT22;5044;48.652;9.250;2022-07-05T14:28:51;35.60;36.80
10010;DHT22;5044;48.652;9.250;2022-07-05T14:31:22;36.10;37.50
10010;DHT22;5044;48.652;9.250;2022-07-05T14:34:14;36.20;35.20
10010;DHT22;5044;48.652;9.250;2022-07-05T14:37:00;36.50;35.60
10010;DHT22;5044;48.652;9.250;2022-07-05T14:39:29;35.30;33.40
10010;DHT22;5044;48.652;9.250;2022-07-05T14:42:03;34.90;34.50
10010;DHT22;5044;48.652;9.250;2022-07-05T14:44:30;35.10;35.00
10010;DHT22;5044;48.652;9.250;2022-07-05T14:46:58;34.90;34.70
10010;DHT22;5044;48.652;9.250;2022-07-05T14:49:25;34.90;34.70
10010;DHT22;5044;48.652;9.250;2022-07-05T14:51:52;35.10;35.20
10010;DHT22;5044;48.652;9.250;2022-07-05T14:54:22;34.80;34.90
10010;DHT22;5044;48.652;9.250;2022-07-05T14:56:57;35.60;35.90
10010;DHT22;5044;48.652;9.250;2022-07-05T14:59:28;34.30;33.40
10010;DHT22;5044;48.652;9.250;2022-07-05T15:01:55;33.80;34.00
10010;DHT22;5044;48.652;9.250;2022-07-05T15:04:22;33.70;34.40
10010;DHT22;5044;48.652;9.250;2022-07-05T15:06:53;34.60;35.90
10010;DHT22;5044;48.652;9.250;2022-07-05T15:09:32;35.90;38.10
10010;DHT22;5044;48.652;9.250;2022-07-05T15:12:00;35.70;34.70
10010;DHT22;5044;48.652;9.250;2022-07-05T15:14:28;34.90;33.40
10010;DHT22;5044;48.652;9.250;2022-07-05T15:16:58;34.50;35.40
10010;DHT22;5044;48.652;9.250;2022-07-05T15:19:25;34.50;34.50
10010;DHT22;5044;48.652;9.250;2022-07-05T15:21:53;34.50;34.90
10010;DHT22;5044;48.652;9.250;2022-07-05T15:24:20;34.30;34.50
10010;DHT22;5044;48.652;9.250;2022-07-05T15:26:47;33.80;34.50
10010;DHT22;5044;48.652;9.250;2022-07-05T15:29:16;33.10;34.90
10010;DHT22;5044;48.652;9.250;2022-07-05T15:31:44;32.80;35.20
10010;DHT22;5044;48.652;9.250;2022-07-05T15:34:12;32.70;35.80
10010;DHT22;5044;48.652;9.250;2022-07-05T15:36:42;32.70;35.50
10010;DHT22;5044;48.652;9.250;2022-07-05T15:39:12;32.20;35.30
10010;DHT22;5044;48.652;9.250;2022-07-05T15:41:38;32.00;35.20
10010;DHT22;5044;48.652;9.250;2022-07-05T15:44:05;31.60;35.80
10010;DHT22;5044;48.652;9.250;2022-07-05T15:46:33;31.40;36.20
10010;DHT22;5044;48.652;9.250;2022-07-05T15:49:16;31.40;36.90
10010;DHT22;5044;48.652;9.250;2022-07-05T15:51:43;31.30;36.90
10010;DHT22;5044;48.652;9.250;2022-07-05T15:54:13;31.50;37.90
10010;DHT22;5044;48.652;9.250;2022-07-05T15:56:40;31.60;37.30
10010;DHT22;5044;48.652;9.250;2022-07-05T15:59:07;31.30;37.50
10010;DHT22;5044;48.652;9.250;2022-07-05T16:01:34;31.00;37.20
10010;DHT22;5044;48.652;9.250;2022-07-05T16:04:03;31.30;37.30
10010;DHT22;5044;48.652;9.250;2022-07-05T16:06:36;31.00;37.40
10010;DHT22;5044;48.652;9.250;2022-07-05T16:09:14;31.30;38.60
10010;DHT22;5044;48.652;9.250;2022-07-05T16:11:41;31.50;39.10
10010;DHT22;5044;48.652;9.250;2022-07-05T16:14:11;31.20;38.00
10010;DHT22;5044;48.652;9.250;2022-07-05T16:16:40;30.90;38.30
10010;DHT22;5044;48.652;9.250;2022-07-05T16:19:07;31.00;38.80
10010;DHT22;5044;48.652;9.250;2022-07-05T16:21:35;31.30;38.20
10010;DHT22;5044;48.652;9.250;2022-07-05T16:24:02;31.20;38.40
10010;DHT22;5044;48.652;9.250;2022-07-05T16:26:32;31.00;37.90